Time;durP1;ratioP1;P1;durP2;ratioP2;P2;SDS_P1;SDS_P2;PMS_P1;PMS_P2;Temp;Humidity;BMP_temperature;BMP_pressure;BME280_temperature;BME280_humidity;BME280_pressure;Samples;Min_cycle;Max_cycle;Signal;HPM_P1;HPM_P2
2022/04/20 00:00:05;;;;;;;;;;;11.80;59.50;;;;;;5031749;28;19963;-69
2022/04/20 00:02:31;;;;;;;;;;;11.80;59.60;;;;;;5032358;28;20275;-71
2022/04/20 00:04:56;;;;;;;;;;;11.70;59.70;;;;;;5032303;28;20388;-69
2022/04/20 00:07:22;;;;;;;;;;;11.70;59.80;;;;;;5032245;28;19949;-70
2022/04/20 00:09:48;;;;;;;;;;;11.60;59.80;;;;;;5032149;28;20294;-69
2022/04/20 00:12:13;;;;;;;;;;;11.70;59.90;;;;;;5032590;28;19917;-70
2022/04/20 00:14:38;;;;;;;;;;;11.60;59.90;;;;;;5032086;28;19932;-69
2022/04/20 00:17:04;;;;;;;;;;;11.60;60.10;;;;;;5032297;28;20362;-70
2022/04/20 00:19:29;;;;;;;;;;;11.60;60.00;;;;;;5031715;28;19921;-69
2022/04/20 00:21:55;;;;;;;;;;;11.60;59.90;;;;;;5047169;28;19909;-70
2022/04/20 00:24:20;;;;;;;;;;;11.70;59.80;;;;;;5032295;28;19917;-69
2022/04/20 00:26:46;;;;;;;;;;;11.70;59.70;;;;;;5032025;28;20473;-69
2022/04/20 00:29:11;;;;;;;;;;;11.60;59.90;;;;;;5031655;28;19944;-69
2022/04/20 00:31:36;;;;;;;;;;;11.50;60.50;;;;;;5031846;28;19909;-69
2022/04/20 00:34:02;;;;;;;;;;;11.50;60.70;;;;;;5031865;28;20386;-69
2022/04/20 00:36:28;;;;;;;;;;;11.60;60.80;;;;;;5031542;28;19909;-69
2022/04/20 00:38:53;;;;;;;;;;;11.60;60.90;;;;;;5032048;28;20305;-70
2022/04/20 00:41:18;;;;;;;;;;;11.40;61.20;;;;;;5031519;28;19909;-70
2022/04/20 00:43:44;;;;;;;;;;;11.40;61.30;;;;;;5031667;28;20298;-69
2022/04/20 00:46:10;;;;;;;;;;;11.50;61.40;;;;;;5031494;28;19909;-69
2022/04/20 00:48:38;;;;;;;;;;;11.50;61.40;;;;;;5031678;28;20405;-69
2022/04/20 00:51:03;;;;;;;;;;;11.60;61.50;;;;;;5031574;28;20321;-69
2022/04/20 00:53:29;;;;;;;;;;;11.60;61.60;;;;;;5031808;28;20000;-69
2022/04/20 00:55:54;;;;;;;;;;;11.40;62.00;;;;;;5031743;28;20290;-69
2022/04/20 00:58:20;;;;;;;;;;;11.40;62.50;;;;;;5031911;28;19936;-69
2022/04/20 01:00:45;;;;;;;;;;;11.10;63.20;;;;;;5031056;28;19916;-69
2022/04/20 01:03:11;;;;;;;;;;;11.00;63.80;;;;;;5031659;28;20448;-69
2022/04/20 01:05:37;;;;;;;;;;;11.00;64.20;;;;;;5031485;28;20021;-69
2022/04/20 01:08:02;;;;;;;;;;;10.90;64.60;;;;;;5031520;28;19971;-69
2022/04/20 01:10:28;;;;;;;;;;;10.90;65.00;;;;;;5032039;28;19916;-70
2022/04/20 01:12:53;;;;;;;;;;;10.90;65.20;;;;;;5035394;28;19967;-69
2022/04/20 01:15:19;;;;;;;;;;;10.90;65.40;;;;;;5034943;28;19940;-69
2022/04/20 01:17:44;;;;;;;;;;;10.80;65.70;;;;;;5035204;28;20381;-69
2022/04/20 01:20:12;;;;;;;;;;;10.80;66.10;;;;;;5034934;28;20328;-69
2022/04/20 01:22:38;;;;;;;;;;;10.80;66.20;;;;;;5034896;28;19952;-69
2022/04/20 01:25:03;;;;;;;;;;;10.70;66.20;;;;;;5034159;28;19957;-69
2022/04/20 01:27:29;;;;;;;;;;;10.60;66.60;;;;;;5034919;28;20366;-68
2022/04/20 01:29:54;;;;;;;;;;;10.70;67.00;;;;;;5034721;28;19909;-69
2022/04/20 01:32:20;;;;;;;;;;;10.70;67.10;;;;;;5034670;28;20004;-69
2022/04/20 01:34:45;;;;;;;;;;;10.80;67.10;;;;;;5034892;28;20000;-69
2022/04/20 01:37:10;;;;;;;;;;;10.80;67.40;;;;;;5034498;28;20000;-69
2022/04/20 01:39:36;;;;;;;;;;;10.70;67.70;;;;;;5034578;28;20322;-70
2022/04/20 01:42:02;;;;;;;;;;;10.60;68.30;;;;;;5034791;28;20397;-70
2022/04/20 01:44:27;;;;;;;;;;;10.60;68.50;;;;;;5034601;28;19975;-70
2022/04/20 01:46:52;;;;;;;;;;;10.60;68.70;;;;;;5035060;28;19909;-69
2022/04/20 01:49:18;;;;;;;;;;;10.60;69.00;;;;;;5034859;28;19913;-68
2022/04/20 01:51:46;;;;;;;;;;;10.60;69.30;;;;;;5034728;28;19959;-69
2022/04/20 01:54:12;;;;;;;;;;;10.60;69.60;;;;;;5034681;28;20297;-68
2022/04/20 01:56:38;;;;;;;;;;;10.60;69.50;;;;;;5034306;28;19952;-69
2022/04/20 01:59:03;;;;;;;;;;;10.50;69.90;;;;;;5034425;28;20370;-68
2022/04/20 02:04:13;;;;;;;;;;;10.40;70.40;;;;;;5035032;28;19975;-69
2022/04/20 02:06:38;;;;;;;;;;;10.30;71.00;;;;;;5034476;28;19913;-69
2022/04/20 02:09:04;;;;;;;;;;;10.30;71.40;;;;;;5034171;28;19916;-69
2022/04/20 02:11:29;;;;;;;;;;;10.20;71.90;;;;;;5034388;28;19909;-69
2022/04/20 02:13:55;;;;;;;;;;;10.30;71.90;;;;;;5034191;28;19909;-69
2022/04/20 02:16:20;;;;;;;;;;;10.30;71.90;;;;;;5034183;28;19952;-70
2022/04/20 02:18:46;;;;;;;;;;;10.30;71.70;;;;;;5034313;28;19916;-70
2022/04/20 02:21:11;;;;;;;;;;;10.40;71.70;;;;;;5033831;28;19916;-69
2022/04/20 02:23:37;;;;;;;;;;;10.40;71.50;;;;;;5034079;28;19913;-69
2022/04/20 02:26:02;;;;;;;;;;;10.40;71.60;;;;;;5033817;28;19916;-69
2022/04/20 02:28:27;;;;;;;;;;;10.30;71.70;;;;;;5033840;28;19909;-69
2022/04/20 02:30:53;;;;;;;;;;;10.30;72.20;;;;;;5033593;28;19919;-69
2022/04/20 02:33:18;;;;;;;;;;;10.40;72.20;;;;;;5033880;28;19963;-70
2022/04/20 02:35:44;;;;;;;;;;;10.30;72.40;;;;;;5033916;28;19917;-69
2022/04/20 02:38:10;;;;;;;;;;;10.10;73.00;;;;;;5032905;28;20351;-69
2022/04/20 02:40:39;;;;;;;;;;;10.00;73.60;;;;;;5033581;28;19919;-69
2022/04/20 02:43:05;;;;;;;;;;;10.00;74.20;;;;;;5033665;28;20008;-69
2022/04/20 02:45:30;;;;;;;;;;;10.00;74.70;;;;;;5033546;28;19960;-69
2022/04/20 02:47:56;;;;;;;;;;;9.90;76.60;;;;;;5033559;28;20401;-69
2022/04/20 02:50:21;;;;;;;;;;;9.90;77.00;;;;;;5048426;28;19909;-69
2022/04/20 02:52:47;;;;;;;;;;;9.90;77.50;;;;;;5033656;28;19909;-69
2022/04/20 02:55:12;;;;;;;;;;;9.80;77.80;;;;;;5033337;28;19916;-69
2022/04/20 02:57:38;;;;;;;;;;;9.80;77.80;;;;;;5033382;28;19909;-69
2022/04/20 03:00:04;;;;;;;;;;;9.80;78.20;;;;;;5033116;28;19913;-69
2022/04/20 03:02:31;;;;;;;;;;;9.70;78.60;;;;;;5033083;28;19909;-69
2022/04/20 03:04:56;;;;;;;;;;;9.60;79.40;;;;;;5032967;28;20340;-68
2022/04/20 03:07:22;;;;;;;;;;;9.70;79.60;;;;;;5033038;28;19959;-69
2022/04/20 03:09:48;;;;;;;;;;;9.70;79.50;;;;;;5032827;28;19909;-69
2022/04/20 03:12:13;;;;;;;;;;;9.80;79.50;;;;;;5032929;28;20293;-69
2022/04/20 03:14:39;;;;;;;;;;;9.80;79.80;;;;;;5032904;28;19915;-69
2022/04/20 03:17:04;;;;;;;;;;;9.70;80.30;;;;;;5032900;28;19909;-70
2022/04/20 03:19:30;;;;;;;;;;;9.60;81.10;;;;;;5032083;28;19909;-68
2022/04/20 03:21:55;;;;;;;;;;;9.70;81.20;;;;;;5031047;28;19981;-68
2022/04/20 03:24:21;;;;;;;;;;;9.70;80.80;;;;;;5032914;28;19920;-70
2022/04/20 03:26:46;;;;;;;;;;;9.70;81.10;;;;;;5032531;28;19909;-70
2022/04/20 03:29:12;;;;;;;;;;;9.80;81.30;;;;;;5032470;28;19974;-69
2022/04/20 03:31:38;;;;;;;;;;;9.70;81.40;;;;;;5032716;28;19916;-69
2022/04/20 03:34:03;;;;;;;;;;;9.70;81.70;;;;;;5032437;28;19909;-72
2022/04/20 03:36:30;;;;;;;;;;;9.80;81.80;;;;;;5032341;28;19909;-68
2022/04/20 03:38:55;;;;;;;;;;;9.70;81.60;;;;;;5067370;22;20166;-67
2022/04/20 03:41:22;;;;;;;;;;;9.70;81.80;;;;;;5061680;28;19944;-68
2022/04/20 03:43:50;;;;;;;;;;;9.60;82.20;;;;;;5053151;28;19948;-68
2022/04/20 03:46:16;;;;;;;;;;;9.50;82.80;;;;;;5052758;28;19908;-67
2022/04/20 03:48:42;;;;;;;;;;;9.50;83.20;;;;;;5053031;28;20382;-68
2022/04/20 03:51:07;;;;;;;;;;;9.40;83.20;;;;;;5051370;28;19913;-68
2022/04/20 03:53:32;;;;;;;;;;;9.40;83.50;;;;;;5053096;28;19909;-68
2022/04/20 03:55:58;;;;;;;;;;;9.40;83.60;;;;;;5054642;28;19909;-67
2022/04/20 03:58:23;;;;;;;;;;;9.50;83.60;;;;;;5056844;28;19912;-68
2022/04/20 04:00:51;;;;;;;;;;;9.50;83.60;;;;;;5056738;28;19912;-68
2022/04/20 04:03:17;;;;;;;;;;;9.40;83.70;;;;;;5057207;28;19908;-70
2022/04/20 04:05:43;;;;;;;;;;;9.40;84.40;;;;;;5056738;28;20392;-67
2022/04/20 04:08:09;;;;;;;;;;;9.40;84.80;;;;;;5053001;28;19909;-67
2022/04/20 04:10:34;;;;;;;;;;;9.40;84.90;;;;;;5056803;28;19920;-68
2022/04/20 04:13:00;;;;;;;;;;;9.40;84.90;;;;;;5059501;28;19909;-68
2022/04/20 04:15:25;;;;;;;;;;;9.50;85.10;;;;;;5060788;28;19909;-68
2022/04/20 04:17:54;;;;;;;;;;;9.50;85.10;;;;;;5061506;28;20429;-68
2022/04/20 04:20:22;;;;;;;;;;;9.50;85.30;;;;;;5057044;28;19908;-68
2022/04/20 04:22:50;;;;;;;;;;;9.40;85.40;;;;;;5057241;28;20343;-68
2022/04/20 04:25:16;;;;;;;;;;;9.30;86.10;;;;;;5059443;28;19948;-67
2022/04/20 04:27:41;;;;;;;;;;;9.40;86.60;;;;;;5054217;28;19912;-67
2022/04/20 04:30:07;;;;;;;;;;;9.40;86.70;;;;;;5067140;28;19912;-68
2022/04/20 04:32:33;;;;;;;;;;;9.30;86.80;;;;;;5052095;28;20451;-68
2022/04/20 04:34:58;;;;;;;;;;;9.40;87.10;;;;;;5052048;28;19909;-68
2022/04/20 04:37:24;;;;;;;;;;;9.40;86.90;;;;;;5051841;28;20337;-67
2022/04/20 04:39:49;;;;;;;;;;;9.50;86.40;;;;;;5051356;28;19916;-69
2022/04/20 04:42:14;;;;;;;;;;;9.50;86.50;;;;;;5051877;28;19952;-69
2022/04/20 04:44:40;;;;;;;;;;;9.30;87.00;;;;;;5051885;28;19963;-68
2022/04/20 04:49:50;;;;;;;;;;;9.40;87.60;;;;;;5055716;28;19916;-68
2022/04/20 04:52:15;;;;;;;;;;;9.40;87.90;;;;;;5055780;28;19916;-68
2022/04/20 04:54:41;;;;;;;;;;;9.40;87.80;;;;;;5056343;28;19952;-69
2022/04/20 04:57:09;;;;;;;;;;;9.40;87.90;;;;;;5056077;28;20310;-67
2022/04/20 04:59:36;;;;;;;;;;;9.40;87.80;;;;;;5054148;28;19909;-69
2022/04/20 05:02:01;;;;;;;;;;;9.40;87.80;;;;;;5055502;28;19916;-68
2022/04/20 05:04:27;;;;;;;;;;;9.50;87.90;;;;;;5055562;28;20281;-67
2022/04/20 05:06:52;;;;;;;;;;;9.40;88.10;;;;;;5055339;28;20284;-69
2022/04/20 05:09:18;;;;;;;;;;;9.50;88.00;;;;;;5050926;28;19931;-68
2022/04/20 05:11:43;;;;;;;;;;;9.30;87.50;;;;;;5058955;28;19917;-68
2022/04/20 05:14:09;;;;;;;;;;;9.30;89.40;;;;;;5059886;28;19935;-68
2022/04/20 05:16:35;;;;;;;;;;;9.30;88.80;;;;;;5062632;28;19947;-69
2022/04/20 05:19:01;;;;;;;;;;;9.40;88.60;;;;;;5074258;28;20566;-66
2022/04/20 05:21:26;;;;;;;;;;;9.40;88.70;;;;;;5062072;28;20024;-67
2022/04/20 05:23:54;;;;;;;;;;;9.50;89.10;;;;;;5063145;28;19920;-67
2022/04/20 05:26:20;;;;;;;;;;;9.50;89.10;;;;;;5073350;28;19916;-67
2022/04/20 05:28:46;;;;;;;;;;;9.60;89.10;;;;;;5056590;28;20289;-68
2022/04/20 05:31:11;;;;;;;;;;;9.60;89.00;;;;;;5053016;28;19908;-66
2022/04/20 05:33:37;;;;;;;;;;;9.60;88.60;;;;;;5056285;28;19952;-67
2022/04/20 05:36:02;;;;;;;;;;;9.70;88.30;;;;;;5054833;28;20286;-67
2022/04/20 05:43:56;;;;;;;;;;;9.80;87.50;;;;;;5072662;28;19973;-69
2022/04/20 05:46:21;;;;;;;;;;;9.80;87.10;;;;;;5053820;28;20370;-68
2022/04/20 05:48:47;;;;;;;;;;;9.80;86.80;;;;;;5054252;28;19909;-70
2022/04/20 05:51:13;;;;;;;;;;;9.90;86.40;;;;;;5053142;28;19912;-69
2022/04/20 05:53:39;;;;;;;;;;;9.90;86.00;;;;;;5053832;28;19909;-68
2022/04/20 05:56:04;;;;;;;;;;;10.00;85.00;;;;;;5053407;28;19967;-66
2022/04/20 05:58:30;;;;;;;;;;;10.00;85.40;;;;;;5054858;28;20328;-69
2022/04/20 06:00:58;;;;;;;;;;;10.10;85.00;;;;;;5054055;28;19959;-68
2022/04/20 06:03:23;;;;;;;;;;;10.20;84.90;;;;;;5054924;28;19913;-68
2022/04/20 06:05:49;;;;;;;;;;;10.20;84.30;;;;;;5052045;28;19916;-67
2022/04/20 06:08:14;;;;;;;;;;;10.30;83.90;;;;;;5052203;28;20293;-69
2022/04/20 06:10:40;;;;;;;;;;;10.40;83.20;;;;;;5052466;28;19999;-67
2022/04/20 06:13:06;;;;;;;;;;;10.40;82.30;;;;;;5053332;28;19916;-67
2022/04/20 06:15:31;;;;;;;;;;;10.40;81.30;;;;;;5054231;28;19909;-67
2022/04/20 06:17:56;;;;;;;;;;;10.50;80.90;;;;;;5054553;28;19963;-69
2022/04/20 06:20:22;;;;;;;;;;;10.60;80.20;;;;;;5073260;28;19917;-70
2022/04/20 06:22:47;;;;;;;;;;;10.70;79.30;;;;;;5073529;28;19966;-67
2022/04/20 06:25:13;;;;;;;;;;;10.80;78.70;;;;;;5072429;28;20468;-68
2022/04/20 06:27:38;;;;;;;;;;;10.80;78.00;;;;;;5073124;28;19909;-68
2022/04/20 06:30:04;;;;;;;;;;;10.90;77.90;;;;;;5073015;28;19912;-65
2022/04/20 06:32:31;;;;;;;;;;;10.90;77.40;;;;;;5072733;28;19909;-67
2022/04/20 06:34:57;;;;;;;;;;;11.00;77.90;;;;;;5073551;28;19908;-68
2022/04/20 06:37:25;;;;;;;;;;;11.10;77.40;;;;;;5072487;28;19908;-69
2022/04/20 06:39:50;;;;;;;;;;;11.20;76.60;;;;;;5072238;28;20395;-68
2022/04/20 06:42:18;;;;;;;;;;;11.30;75.80;;;;;;5072492;28;19908;-67
2022/04/20 06:44:43;;;;;;;;;;;11.40;75.40;;;;;;5073584;28;19916;-69
2022/04/20 06:47:09;;;;;;;;;;;11.50;75.00;;;;;;5072332;28;20262;-70
2022/04/20 06:49:34;;;;;;;;;;;11.50;74.50;;;;;;5072713;28;19908;-68
2022/04/20 07:00:14;;;;;;;;;;;11.90;73.00;;;;;;5072503;28;19911;-68
2022/04/20 07:02:39;;;;;;;;;;;12.00;72.30;;;;;;5073195;28;20418;-68
2022/04/20 07:05:05;;;;;;;;;;;12.10;71.80;;;;;;5072521;28;19913;-70
2022/04/20 07:07:30;;;;;;;;;;;12.20;71.00;;;;;;5073246;28;20292;-68
2022/04/20 07:09:56;;;;;;;;;;;12.30;70.70;;;;;;5072845;28;19924;-69
2022/04/20 07:12:21;;;;;;;;;;;12.40;70.10;;;;;;5073410;28;19951;-69
2022/04/20 07:14:47;;;;;;;;;;;12.50;69.90;;;;;;5073952;28;19958;-67
2022/04/20 07:17:12;;;;;;;;;;;12.60;69.50;;;;;;5073805;28;19924;-69
2022/04/20 07:19:37;;;;;;;;;;;12.60;68.80;;;;;;5057738;28;19919;-69
2022/04/20 07:22:03;;;;;;;;;;;12.70;68.50;;;;;;5054008;28;20409;-68
2022/04/20 07:24:28;;;;;;;;;;;12.80;67.90;;;;;;5053656;28;20374;-69
2022/04/20 07:26:54;;;;;;;;;;;12.90;67.30;;;;;;5053919;28;19913;-69
2022/04/20 07:29:19;;;;;;;;;;;12.80;66.60;;;;;;5053820;28;20398;-68
2022/04/20 07:31:46;;;;;;;;;;;12.90;66.80;;;;;;5052335;28;19936;-69
2022/04/20 07:34:11;;;;;;;;;;;13.00;66.80;;;;;;5054246;28;20340;-67
2022/04/20 07:36:37;;;;;;;;;;;13.00;65.40;;;;;;5053957;28;19909;-69
2022/04/20 07:39:02;;;;;;;;;;;13.00;64.90;;;;;;5052106;28;19917;-66
2022/04/20 07:41:28;;;;;;;;;;;13.00;64.70;;;;;;5052151;28;19962;-69
2022/04/20 07:43:53;;;;;;;;;;;13.10;64.20;;;;;;5053756;28;19920;-69
2022/04/20 07:46:20;;;;;;;;;;;13.10;62.60;;;;;;5053395;28;19989;-69
2022/04/20 07:48:45;;;;;;;;;;;13.00;62.60;;;;;;5053315;28;19909;-69
2022/04/20 07:51:13;;;;;;;;;;;13.10;62.20;;;;;;5053364;28;19976;-69
2022/04/20 07:53:38;;;;;;;;;;;13.20;62.10;;;;;;5053788;28;19909;-69
2022/04/20 07:56:04;;;;;;;;;;;13.40;61.40;;;;;;5053093;28;20484;-66
2022/04/20 07:58:29;;;;;;;;;;;13.60;61.10;;;;;;5052477;28;19909;-68
2022/04/20 08:00:55;;;;;;;;;;;13.70;61.00;;;;;;5053879;28;19964;-69
2022/04/20 08:03:21;;;;;;;;;;;13.90;61.20;;;;;;5054801;28;19909;-70
2022/04/20 08:05:48;;;;;;;;;;;14.00;60.80;;;;;;5053182;28;19958;-68
2022/04/20 08:08:13;;;;;;;;;;;14.00;59.90;;;;;;5053478;28;20173;-69
2022/04/20 08:10:39;;;;;;;;;;;14.10;59.80;;;;;;5052878;28;19919;-68
2022/04/20 08:15:49;;;;;;;;;;;14.20;58.10;;;;;;5053870;28;20007;-68
2022/04/20 08:18:15;;;;;;;;;;;14.20;58.10;;;;;;5057191;28;19956;-68
2022/04/20 08:20:40;;;;;;;;;;;14.30;57.90;;;;;;5072888;28;19908;-69
2022/04/20 08:23:06;;;;;;;;;;;14.40;57.60;;;;;;5073189;28;19909;-69
2022/04/20 08:25:31;;;;;;;;;;;14.40;56.80;;;;;;5073252;28;19912;-68
2022/04/20 08:27:56;;;;;;;;;;;14.60;56.80;;;;;;5071554;28;19912;-70
2022/04/20 08:30:22;;;;;;;;;;;14.70;56.50;;;;;;5072858;28;20512;-70
2022/04/20 08:32:47;;;;;;;;;;;14.80;56.10;;;;;;5073035;28;19955;-68
2022/04/20 08:35:13;;;;;;;;;;;14.90;56.10;;;;;;5072878;28;19917;-68
2022/04/20 08:37:38;;;;;;;;;;;15.00;55.70;;;;;;5073329;28;20006;-68
2022/04/20 08:40:04;;;;;;;;;;;14.90;55.50;;;;;;5073313;28;19931;-68
2022/04/20 08:42:30;;;;;;;;;;;15.10;55.40;;;;;;5072984;28;19915;-69
2022/04/20 08:44:56;;;;;;;;;;;15.20;55.40;;;;;;5073465;28;20033;-69
2022/04/20 08:47:22;;;;;;;;;;;15.20;55.20;;;;;;5072150;28;20365;-70
2022/04/20 08:49:49;;;;;;;;;;;15.10;54.60;;;;;;5073606;28;19908;-69
2022/04/20 08:54:59;;;;;;;;;;;15.20;55.10;;;;;;5073954;28;19920;-69
2022/04/20 08:57:25;;;;;;;;;;;15.20;54.30;;;;;;5073623;28;19908;-69
2022/04/20 08:59:51;;;;;;;;;;;15.10;54.70;;;;;;5072582;28;20392;-68
2022/04/20 09:02:18;;;;;;;;;;;15.20;54.50;;;;;;5073179;28;19909;-69
2022/04/20 09:04:44;;;;;;;;;;;15.30;54.70;;;;;;5072539;28;20297;-69
2022/04/20 09:07:10;;;;;;;;;;;15.50;54.10;;;;;;5072605;28;19919;-70
2022/04/20 09:09:36;;;;;;;;;;;15.60;54.10;;;;;;5071389;28;19914;-69
2022/04/20 09:12:02;;;;;;;;;;;15.80;54.00;;;;;;5073142;28;20002;-69
2022/04/20 09:14:30;;;;;;;;;;;15.70;53.50;;;;;;5073590;28;19913;-70
2022/04/20 09:16:56;;;;;;;;;;;15.60;53.50;;;;;;5072854;28;19908;-70
2022/04/20 09:19:25;;;;;;;;;;;15.80;53.50;;;;;;5058743;28;19909;-70
2022/04/20 09:21:55;;;;;;;;;;;15.80;53.10;;;;;;5052731;28;19909;-70
2022/04/20 09:24:21;;;;;;;;;;;15.80;52.30;;;;;;5053066;28;19924;-68
2022/04/20 09:26:51;;;;;;;;;;;15.60;52.40;;;;;;5052540;28;19909;-68
2022/04/20 09:29:16;;;;;;;;;;;15.60;52.90;;;;;;5051442;28;20565;-70
2022/04/20 09:31:45;;;;;;;;;;;15.80;52.80;;;;;;5053504;28;19913;-69
2022/04/20 09:34:26;;;;;;;;;;;15.70;52.10;;;;;;5056307;28;20262;-69
2022/04/20 09:36:54;;;;;;;;;;;15.80;52.70;;;;;;5055277;28;19909;-69
2022/04/20 09:39:20;;;;;;;;;;;15.80;52.50;;;;;;5056003;28;19928;-70
2022/04/20 09:41:59;;;;;;;;;;;15.90;52.20;;;;;;5055213;28;19909;-70
2022/04/20 09:44:25;;;;;;;;;;;16.10;52.00;;;;;;5055836;28;19927;-69
2022/04/20 09:49:35;;;;;;;;;;;16.40;51.20;;;;;;5056845;28;20003;-69
2022/04/20 09:52:10;;;;;;;;;;;16.20;51.10;;;;;;5056013;28;19944;-70
2022/04/20 09:54:36;;;;;;;;;;;16.30;51.50;;;;;;5054211;28;19916;-69
2022/04/20 09:57:07;;;;;;;;;;;16.40;50.90;;;;;;5056124;28;19916;-68
2022/04/20 09:59:32;;;;;;;;;;;16.30;51.60;;;;;;5055879;28;20392;-68
2022/04/20 10:01:58;;;;;;;;;;;15.90;52.60;;;;;;5056238;28;19909;-69
2022/04/20 10:04:24;;;;;;;;;;;15.90;53.00;;;;;;5054612;28;19920;-69
2022/04/20 10:06:49;;;;;;;;;;;16.00;53.30;;;;;;5055675;28;19919;-67
2022/04/20 10:09:15;;;;;;;;;;;16.20;53.20;;;;;;5055943;28;19948;-68
2022/04/20 10:11:41;;;;;;;;;;;16.40;52.70;;;;;;5055818;28;19915;-69
2022/04/20 10:16:54;;;;;;;;;;;16.60;52.90;;;;;;5054921;28;19931;-68
2022/04/20 10:19:29;;;;;;;;;;;16.60;52.80;;;;;;5067702;28;20314;-69
2022/04/20 10:21:55;;;;;;;;;;;16.80;52.70;;;;;;5075755;28;19913;-68
2022/04/20 10:24:29;;;;;;;;;;;16.90;52.20;;;;;;5076330;28;19916;-68
2022/04/20 10:26:57;;;;;;;;;;;16.90;51.90;;;;;;5075702;28;20002;-67
2022/04/20 10:29:28;;;;;;;;;;;17.00;52.20;;;;;;5076023;28;19916;-68
2022/04/20 10:31:59;;;;;;;;;;;16.90;51.60;;;;;;5075012;28;19917;-67
2022/04/20 10:34:25;;;;;;;;;;;16.70;52.20;;;;;;5074614;28;19912;-67
2022/04/20 10:36:56;;;;;;;;;;;16.60;52.20;;;;;;5073682;28;19909;-68
2022/04/20 10:39:22;;;;;;;;;;;16.40;53.00;;;;;;5073974;28;19916;-68
2022/04/20 10:42:06;;;;;;;;;;;16.50;53.30;;;;;;5074873;28;19919;-69
2022/04/20 10:44:52;;;;;;;;;;;16.60;52.80;;;;;;5075116;28;19912;-68
2022/04/20 10:47:19;;;;;;;;;;;16.80;52.70;;;;;;5073979;28;20277;-69
2022/04/20 10:49:44;;;;;;;;;;;17.00;52.60;;;;;;5052762;28;20293;-68
2022/04/20 10:52:42;;;;;;;;;;;17.00;52.30;;;;;;5052477;28;19915;-68
2022/04/20 10:55:11;;;;;;;;;;;17.10;52.20;;;;;;5070440;28;20409;-68
2022/04/20 10:57:37;;;;;;;;;;;17.00;51.90;;;;;;5071856;28;19908;-69
2022/04/20 11:00:18;;;;;;;;;;;17.00;52.10;;;;;;5071410;28;20363;-69
2022/04/20 11:02:47;;;;;;;;;;;17.10;52.30;;;;;;5071515;28;19912;-69
2022/04/20 11:05:13;;;;;;;;;;;17.20;52.20;;;;;;5070592;28;20006;-69
2022/04/20 11:07:59;;;;;;;;;;;17.00;52.30;;;;;;5071561;28;19915;-69
2022/04/20 11:10:24;;;;;;;;;;;17.00;51.50;;;;;;5053182;28;19918;-68
2022/04/20 11:21:02;;;;;;;;;;;16.60;51.90;;;;;;5050850;28;19916;-68
2022/04/20 11:23:48;;;;;;;;;;;16.50;52.40;;;;;;5049961;28;19909;-69
2022/04/20 11:26:24;;;;;;;;;;;16.70;52.70;;;;;;5065832;28;19927;-69
2022/04/20 11:28:50;;;;;;;;;;;17.00;52.40;;;;;;5072304;28;19912;-69
2022/04/20 11:31:16;;;;;;;;;;;17.00;52.10;;;;;;5074154;28;19908;-68
2022/04/20 11:33:42;;;;;;;;;;;17.00;51.50;;;;;;5074864;28;19909;-69
2022/04/20 11:36:12;;;;;;;;;;;17.00;51.40;;;;;;5073846;28;19915;-69
2022/04/20 11:38:39;;;;;;;;;;;16.80;51.30;;;;;;5072953;28;20013;-69
2022/04/20 11:41:05;;;;;;;;;;;16.80;51.90;;;;;;5073850;28;19997;-69
2022/04/20 11:43:31;;;;;;;;;;;16.80;51.90;;;;;;5074419;28;19920;-67
2022/04/20 11:45:56;;;;;;;;;;;17.00;52.30;;;;;;5074202;28;20353;-69
2022/04/20 11:48:22;;;;;;;;;;;17.00;52.30;;;;;;5074005;28;19999;-69
2022/04/20 11:50:57;;;;;;;;;;;16.90;51.70;;;;;;5073223;28;19912;-68
2022/04/20 11:53:32;;;;;;;;;;;16.60;52.00;;;;;;5073806;28;19944;-68
2022/04/20 11:55:57;;;;;;;;;;;16.70;52.50;;;;;;5073630;28;19927;-68
2022/04/20 11:58:23;;;;;;;;;;;16.90;53.00;;;;;;5073981;28;19913;-68
2022/04/20 12:00:57;;;;;;;;;;;16.90;52.50;;;;;;5073387;28;19908;-69
2022/04/20 12:03:22;;;;;;;;;;;17.00;51.70;;;;;;5073601;28;19947;-67
2022/04/20 12:05:58;;;;;;;;;;;17.00;52.20;;;;;;5073409;28;20348;-69
2022/04/20 12:08:24;;;;;;;;;;;17.10;52.20;;;;;;5073325;28;19912;-68
2022/04/20 12:10:50;;;;;;;;;;;17.00;52.00;;;;;;5073193;28;19915;-68
2022/04/20 12:13:16;;;;;;;;;;;16.90;52.50;;;;;;5073335;28;20377;-68
2022/04/20 12:15:41;;;;;;;;;;;17.00;52.50;;;;;;5073454;28;19908;-69
2022/04/20 12:18:06;;;;;;;;;;;16.80;52.40;;;;;;5070610;28;19920;-68
2022/04/20 12:20:32;;;;;;;;;;;16.80;52.80;;;;;;5053099;28;19909;-68
2022/04/20 12:23:06;;;;;;;;;;;16.80;52.90;;;;;;5053810;28;19995;-69
2022/04/20 12:25:32;;;;;;;;;;;16.80;53.30;;;;;;5053459;28;19928;-68
2022/04/20 12:27:57;;;;;;;;;;;16.80;53.30;;;;;;5053079;28;20274;-69
2022/04/20 12:30:45;;;;;;;;;;;16.80;53.80;;;;;;5052644;28;19913;-68
2022/04/20 12:33:23;;;;;;;;;;;16.80;53.90;;;;;;5053678;28;19909;-68
2022/04/20 12:35:58;;;;;;;;;;;16.90;53.80;;;;;;5054299;28;20342;-69
2022/04/20 12:38:24;;;;;;;;;;;16.80;53.90;;;;;;5052996;28;20290;-70
2022/04/20 12:40:49;;;;;;;;;;;16.70;54.30;;;;;;5052807;28;19920;-67
2022/04/20 12:43:14;;;;;;;;;;;16.70;54.30;;;;;;5052943;28;19909;-69
2022/04/20 12:45:40;;;;;;;;;;;16.80;54.60;;;;;;5052648;28;19917;-69
2022/04/20 12:48:06;;;;;;;;;;;16.90;54.60;;;;;;5052941;28;20026;-70
2022/04/20 12:50:38;;;;;;;;;;;16.90;54.30;;;;;;5053525;28;20277;-69
2022/04/20 12:53:04;;;;;;;;;;;16.60;54.50;;;;;;5054692;28;19924;-68
2022/04/20 12:55:40;;;;;;;;;;;16.80;54.90;;;;;;5054725;28;20424;-69
2022/04/20 13:03:39;;;;;;;;;;;17.00;55.00;;;;;;5073144;28;20427;-69
2022/04/20 13:06:06;;;;;;;;;;;17.10;55.10;;;;;;5074019;28;19918;-68
2022/04/20 13:08:32;;;;;;;;;;;17.10;55.00;;;;;;5078361;28;19908;-69
2022/04/20 13:10:58;;;;;;;;;;;17.30;55.10;;;;;;5076413;28;19962;-70
2022/04/20 13:13:25;;;;;;;;;;;17.30;54.70;;;;;;5077530;28;19969;-70
2022/04/20 13:15:50;;;;;;;;;;;17.40;54.40;;;;;;5078273;28;19909;-68
2022/04/20 13:18:16;;;;;;;;;;;17.40;54.60;;;;;;5077748;28;20296;-67
2022/04/20 13:20:41;;;;;;;;;;;17.50;54.30;;;;;;5076937;28;19908;-68
2022/04/20 13:23:07;;;;;;;;;;;17.70;54.20;;;;;;5076118;28;20235;-68
2022/04/20 13:28:16;;;;;;;;;;;17.80;53.80;;;;;;5076451;28;19981;-68
2022/04/20 13:30:42;;;;;;;;;;;17.90;53.90;;;;;;5075894;28;19986;-69
2022/04/20 13:33:10;;;;;;;;;;;18.10;54.10;;;;;;5076453;28;20004;-69
2022/04/20 13:35:36;;;;;;;;;;;18.20;53.70;;;;;;5075877;28;19915;-69
2022/04/20 13:38:02;;;;;;;;;;;18.20;53.20;;;;;;5075899;28;19991;-68
2022/04/20 13:40:28;;;;;;;;;;;18.20;53.30;;;;;;5075598;28;19918;-70
2022/04/20 13:42:56;;;;;;;;;;;18.20;53.00;;;;;;5075618;28;20000;-69
2022/04/20 13:45:21;;;;;;;;;;;18.30;52.70;;;;;;5075621;28;19921;-68
2022/04/20 13:47:47;;;;;;;;;;;18.30;52.90;;;;;;5075120;28;19970;-67
2022/04/20 13:50:12;;;;;;;;;;;18.50;53.20;;;;;;5075306;28;20364;-69
2022/04/20 13:52:38;;;;;;;;;;;18.80;53.10;;;;;;5076174;28;19952;-69
2022/04/20 13:55:04;;;;;;;;;;;18.80;52.80;;;;;;5076408;28;19923;-69
2022/04/20 13:57:30;;;;;;;;;;;18.80;52.80;;;;;;5075827;28;19909;-69
2022/04/20 13:59:55;;;;;;;;;;;18.70;52.80;;;;;;5074286;28;19912;-68
2022/04/20 14:02:21;;;;;;;;;;;18.90;52.80;;;;;;5075727;28;19923;-70
2022/04/20 14:04:47;;;;;;;;;;;19.10;52.70;;;;;;5070565;28;20013;-70
2022/04/20 14:07:12;;;;;;;;;;;19.40;52.00;;;;;;5056046;28;19917;-69
2022/04/20 14:09:38;;;;;;;;;;;19.60;52.00;;;;;;5055533;28;19916;-69
2022/04/20 14:12:03;;;;;;;;;;;19.50;51.70;;;;;;5056205;28;19967;-71
2022/04/20 14:14:30;;;;;;;;;;;19.50;51.60;;;;;;5055680;28;19909;-69
2022/04/20 14:16:56;;;;;;;;;;;19.70;51.90;;;;;;5055383;28;19969;-68
2022/04/20 14:19:22;;;;;;;;;;;19.70;51.60;;;;;;5068421;28;19916;-69
2022/04/20 14:21:47;;;;;;;;;;;19.70;51.20;;;;;;5075846;28;19954;-69
2022/04/20 14:24:13;;;;;;;;;;;19.90;51.40;;;;;;5075961;28;19916;-68
2022/04/20 14:32:09;;;;;;;;;;;19.90;51.10;;;;;;5074675;28;19915;-66
2022/04/20 14:34:37;;;;;;;;;;;20.10;51.30;;;;;;5074515;28;19909;-67
2022/04/20 14:37:03;;;;;;;;;;;19.70;51.20;;;;;;5073704;28;19951;-68
2022/04/20 14:39:29;;;;;;;;;;;20.00;51.50;;;;;;5073504;28;19917;-67
2022/04/20 14:41:55;;;;;;;;;;;19.90;51.20;;;;;;5073733;28;19934;-69
2022/04/20 14:44:21;;;;;;;;;;;19.70;51.70;;;;;;5074014;28;19917;-67
2022/04/20 14:46:46;;;;;;;;;;;19.90;51.60;;;;;;5074957;28;20059;-70
2022/04/20 14:49:12;;;;;;;;;;;20.20;51.30;;;;;;5074748;28;19973;-68
2022/04/20 14:51:38;;;;;;;;;;;20.30;51.00;;;;;;5074544;28;19908;-68
2022/04/20 14:54:04;;;;;;;;;;;20.20;51.10;;;;;;5074452;28;20024;-69
2022/04/20 14:56:29;;;;;;;;;;;20.20;51.40;;;;;;5074907;28;19908;-68
2022/04/20 14:58:59;;;;;;;;;;;20.50;51.40;;;;;;5074650;28;19916;-68
2022/04/20 15:01:24;;;;;;;;;;;20.80;51.20;;;;;;5073674;28;19909;-68
2022/04/20 15:03:50;;;;;;;;;;;20.80;51.00;;;;;;5074592;28;19914;-68
2022/04/20 15:06:16;;;;;;;;;;;21.00;50.90;;;;;;5056276;28;19908;-70